Santa Ponca, Spain
Current Conditions -  °F | °C
As of 6:00 PM on Tuesday 27 Jan 2015 (Local Time) from LEPA Reporting Station
Few Clouds Few Clouds  
Wind Chill: 55°   Ceiling: Unl
Heat Index: 55°   Visibility: 6mi
Dew Point: 46°   Wind: 7mph
Humidity: 72%   Direction: 230°SW
Pressure: 30.12"   Gusts: NA
Location:  39.51°N, 2.48°E
Report Text: LEPA 271700Z 23006KT 9999 FEW025 13/08 Q1020 NOSIG
Loading
Personal Weather Stations






























Interactive Weather Map New forecast layout! Learn more

10-Day Weather Forecast

Advertisements
Track Severe Weather on mobile